Time;durP1;ratioP1;P1;durP2;ratioP2;P2;SDS_P1;SDS_P2;PMS_P1;PMS_P2;Temp;Humidity;BMP_temperature;BMP_pressure;BME280_temperature;BME280_humidity;BME280_pressure;Samples;Min_cycle;Max_cycle;Signal;HPM_P1;HPM_P2
2020/12/23 00:00:14;;;;;;;33.33;13.18;;;;;;;-3.18;90.38;100050.52;1703826;83;21394;-69
2020/12/23 00:02:43;;;;;;;27.02;12.63;;;;;;;-3.18;90.46;100053.72;1703913;84;21568;-69
2020/12/23 00:05:17;;;;;;;25.00;12.60;;;;;;;-3.19;90.46;100053.41;1703869;84;21018;-68
2020/12/23 00:07:45;;;;;;;26.35;10.68;;;;;;;-3.18;90.54;100045.66;1703894;84;20975;-69
2020/12/23 00:10:13;;;;;;;25.40;10.85;;;;;;;-3.22;90.36;100031.84;1703881;83;21125;-69
2020/12/23 00:12:40;;;;;;;25.30;11.78;;;;;;;-3.24;90.42;100029.89;1703839;84;21374;-69
2020/12/23 00:15:08;;;;;;;22.67;12.63;;;;;;;-3.25;90.51;100022.87;1703812;84;20967;-68
2020/12/23 00:17:36;;;;;;;27.93;12.10;;;;;;;-3.26;90.61;100023.91;1704024;83;20943;-68
2020/12/23 00:20:05;;;;;;;24.52;10.55;;;;;;;-3.25;90.63;100025.55;1703960;84;21026;-69
2020/12/23 00:22:32;;;;;;;26.93;12.18;;;;;;;-3.27;90.61;100014.72;1704033;83;20995;-70
2020/12/23 00:25:00;;;;;;;23.75;11.30;;;;;;;-3.29;90.58;100010.91;1704018;84;21368;-70
2020/12/23 00:27:29;;;;;;;26.90;11.48;;;;;;;-3.29;90.75;100004.71;1703957;84;21034;-70
2020/12/23 00:29:56;;;;;;;29.27;11.90;;;;;;;-3.29;90.90;100003.37;1703975;83;20947;-71
2020/12/23 00:32:29;;;;;;;23.85;11.50;;;;;;;-3.29;90.98;100014.11;1703968;84;21084;-71
2020/12/23 00:34:56;;;;;;;;;;;;;;;-3.30;91.07;100015.15;1706563;84;21166;-71
2020/12/23 00:37:25;;;;;;;28.80;12.53;;;;;;;-3.34;91.11;100012.89;1703979;83;21202;-71
2020/12/23 00:39:52;;;;;;;27.80;11.75;;;;;;;-3.33;91.27;100006.48;1703796;83;21010;-71
2020/12/23 00:42:22;;;;;;;24.60;11.73;;;;;;;-3.33;91.40;100005.14;1703977;84;20999;-70
2020/12/23 00:44:50;;;;;;;22.07;10.78;;;;;;;-3.35;91.40;99993.79;1703935;83;21227;-71
2020/12/23 00:47:18;;;;;;;27.65;13.18;;;;;;;-3.35;91.68;99995.66;1704003;84;21081;-69
2020/12/23 00:49:46;;;;;;;26.55;12.00;;;;;;;-3.35;91.62;99995.13;1704079;84;21205;-69
2020/12/23 00:52:14;;;;;;;29.02;12.20;;;;;;;-3.37;91.67;99991.02;1703859;84;20963;-69
2020/12/23 00:54:41;;;;;;;26.35;13.40;;;;;;;-3.37;91.83;99996.39;1703990;83;21524;-69
2020/12/23 00:57:10;;;;;;;23.30;11.45;;;;;;;-3.37;91.97;99990.50;1689725;84;21160;-69
2020/12/23 00:59:38;;;;;;;26.70;11.78;;;;;;;-3.36;91.98;99984.09;1704007;84;21066;-68
2020/12/23 01:02:06;;;;;;;17.98;9.13;;;;;;;-3.35;91.99;99979.55;1703991;83;22424;-69
2020/12/23 01:04:34;;;;;;;25.55;11.85;;;;;;;-3.37;91.90;99978.42;1703911;84;20970;-68
2020/12/23 01:07:02;;;;;;;27.35;12.45;;;;;;;-3.37;91.91;99974.39;1703923;84;21628;-69
2020/12/23 01:09:30;;;;;;;26.95;12.68;;;;;;;-3.38;92.08;99970.06;1703953;84;21054;-69
2020/12/23 01:11:57;;;;;;;28.05;12.30;;;;;;;-3.37;92.04;99969.54;1703967;83;20927;-69
2020/12/23 01:14:25;;;;;;;23.32;11.08;;;;;;;-3.35;92.19;99956.72;1703944;84;21470;-69
2020/12/23 01:16:52;;;;;;;25.35;11.08;;;;;;;-3.33;91.97;99948.77;1703968;84;21021;-69
2020/12/23 01:19:20;;;;;;;24.43;11.63;;;;;;;-3.32;91.95;99948.24;1703900;83;20998;-69
2020/12/23 01:21:48;;;;;;;25.82;12.15;;;;;;;-3.30;91.85;99939.97;1703935;84;21046;-69
2020/12/23 01:24:16;;;;;;;26.90;12.95;;;;;;;-3.31;91.67;99928.41;1704046;84;21498;-69
2020/12/23 01:26:43;;;;;;;31.35;13.53;;;;;;;-3.28;91.81;99927.16;1703954;84;21204;-69
2020/12/23 01:29:11;;;;;;;29.63;13.45;;;;;;;-3.27;91.89;99928.80;1703990;84;21160;-68
2020/12/23 01:31:41;;;;;;;30.88;14.05;;;;;;;-3.29;91.72;99920.14;1703978;84;21458;-68
2020/12/23 01:34:09;;;;;;;30.17;14.10;;;;;;;-3.32;91.88;99913.34;1703971;84;21058;-68
2020/12/23 01:36:37;;;;;;;29.72;14.95;;;;;;;-3.35;92.04;99906.54;1703935;84;21061;-69
2020/12/23 01:39:05;;;;;;;28.65;13.83;;;;;;;-3.34;92.12;99912.21;1703781;83;23580;-68
2020/12/23 01:41:32;;;;;;;24.10;11.28;;;;;;;-3.36;91.92;99900.87;1703895;84;21026;-68
2020/12/23 01:44:01;;;;;;;26.40;12.45;;;;;;;-3.36;92.04;99906.76;1703931;84;21149;-69
2020/12/23 01:46:34;;;;;;;28.45;13.13;;;;;;;-3.38;91.97;99894.89;1703987;83;21696;-70
2020/12/23 01:49:06;;;;;;;27.05;12.58;;;;;;;-3.37;91.95;99899.22;1704092;83;21573;-68
2020/12/23 01:51:36;;;;;;;29.05;12.30;;;;;;;-3.37;91.92;99887.14;1704048;83;21203;-68
2020/12/23 01:54:04;;;;;;;25.92;11.43;;;;;;;-3.35;92.10;99885.58;1703838;83;21112;-67
2020/12/23 01:56:32;;;;;;;33.18;13.78;;;;;;;-3.35;92.03;99886.41;1703923;84;20998;-69
2020/12/23 01:58:59;;;;;;;32.78;13.43;;;;;;;-3.36;91.98;99876.70;1643712;84;21204;-69
2020/12/23 02:01:28;;;;;;;35.20;15.70;;;;;;;-3.34;91.98;99888.05;1703934;84;21069;-69
2020/12/23 02:03:56;;;;;;;36.40;14.68;;;;;;;-3.33;91.90;99881.64;1665728;84;21377;-69
2020/12/23 02:06:25;;;;;;;33.75;14.55;;;;;;;-3.30;92.00;99887.09;1703861;83;20983;-69
2020/12/23 02:08:53;;;;;;;33.53;14.87;;;;;;;-3.27;91.94;99879.13;1703922;84;21022;-68
2020/12/23 02:11:21;;;;;;;34.48;15.45;;;;;;;-3.26;92.00;99882.12;1703810;84;21136;-69
2020/12/23 02:13:49;;;;;;;33.10;14.95;;;;;;;-3.22;91.91;99881.98;1689831;84;21152;-68
2020/12/23 02:16:17;;;;;;;41.40;15.60;;;;;;;-3.19;91.81;99878.86;1703921;84;21369;-68
2020/12/23 02:18:45;;;;;;;35.20;14.30;;;;;;;-3.18;91.75;99873.80;1703870;84;20970;-68
2020/12/23 02:21:15;;;;;;;39.13;15.45;;;;;;;-3.17;91.73;99879.47;1703749;83;21069;-68
2020/12/23 02:23:44;;;;;;;33.63;13.70;;;;;;;-3.15;91.63;99872.02;1703927;84;21153;-69
2020/12/23 02:26:12;;;;;;;33.00;14.65;;;;;;;-3.16;91.59;99867.17;1703988;84;21564;-70
2020/12/23 02:28:40;;;;;;;32.48;13.78;;;;;;;-3.14;91.56;99866.43;1703915;84;22731;-70
2020/12/23 02:31:08;;;;;;;31.07;14.68;;;;;;;-3.13;91.59;99867.25;1703978;84;20942;-70
2020/12/23 02:33:37;;;;;;;31.17;14.50;;;;;;;-3.11;91.51;99860.62;1703924;84;20927;-70
2020/12/23 02:36:05;;;;;;;32.03;13.75;;;;;;;-3.10;91.44;99861.44;1703830;83;20958;-70
2020/12/23 02:38:34;;;;;;;32.83;14.28;;;;;;;-3.09;91.54;99855.03;1704815;83;21014;-71
2020/12/23 02:41:01;;;;;;;37.05;11.70;;;;;;;-3.08;91.50;99849.44;1730880;83;21202;-70
2020/12/23 02:43:29;;;;;;;34.05;13.50;;;;;;;-3.07;91.44;99851.09;1730816;83;20946;-70
2020/12/23 02:45:56;;;;;;;31.50;14.18;;;;;;;-3.06;91.42;99851.38;1730839;83;21112;-70
2020/12/23 02:48:24;;;;;;;32.48;14.30;;;;;;;-3.05;91.49;99855.72;1730829;83;21093;-70
2020/12/23 02:50:52;;;;;;;32.58;14.30;;;;;;;-3.04;91.44;99857.36;1730792;83;21132;-71
2020/12/23 02:53:20;;;;;;;36.23;14.03;;;;;;;-3.03;91.40;99860.34;1730815;83;21203;-70
2020/12/23 02:55:47;;;;;;;36.80;15.03;;;;;;;-3.01;91.49;99860.95;1730794;83;21915;-70
2020/12/23 02:58:15;;;;;;;36.75;14.23;;;;;;;-3.00;91.36;99852.38;1730841;83;21493;-70
2020/12/23 03:00:43;;;;;;;36.88;13.65;;;;;;;-2.98;91.42;99853.50;1730813;83;21025;-70
2020/12/23 03:03:10;;;;;;;33.00;14.30;;;;;;;-2.97;91.49;99857.30;1730826;83;21125;-69
2020/12/23 03:05:39;;;;;;;33.50;13.55;;;;;;;-2.96;91.35;99860.30;1730783;83;21454;-70
2020/12/23 03:08:06;;;;;;;36.45;15.50;;;;;;;-2.97;91.18;99845.22;1730773;83;20950;-69
2020/12/23 03:10:34;;;;;;;33.88;15.23;;;;;;;-2.97;91.21;99845.22;1730798;83;21496;-69
2020/12/23 03:13:02;;;;;;;35.83;14.50;;;;;;;-2.95;91.27;99844.47;1730799;83;21133;-69
2020/12/23 03:15:30;;;;;;;35.63;14.30;;;;;;;-2.93;91.37;99842.39;1730843;83;21627;-69
2020/12/23 03:17:57;;;;;;;31.62;13.45;;;;;;;-2.93;91.29;99837.02;1730790;83;22432;-69
2020/12/23 03:20:25;;;;;;;31.60;13.78;;;;;;;-2.91;91.24;99840.83;1730728;83;21001;-69
2020/12/23 03:22:52;;;;;;;35.58;14.87;;;;;;;-2.92;91.23;99838.66;1730809;83;21548;-68
2020/12/23 03:25:21;;;;;;;33.95;13.48;;;;;;;-2.92;91.24;99834.63;1730796;83;21160;-68
2020/12/23 03:27:48;;;;;;;40.58;16.30;;;;;;;-2.91;91.30;99832.25;1730826;83;21060;-68
2020/12/23 03:30:16;;;;;;;35.13;13.93;;;;;;;-2.89;91.33;99831.50;1730785;83;23608;-69
2020/12/23 03:32:44;;;;;;;34.08;14.75;;;;;;;-2.88;91.33;99834.46;1730706;83;21020;-69
2020/12/23 03:35:14;;;;;;;34.95;14.43;;;;;;;-2.86;91.33;99827.52;1730825;82;21502;-69
2020/12/23 03:37:41;;;;;;;28.73;12.30;;;;;;;-2.86;91.31;99832.38;1730764;82;21142;-68
2020/12/23 03:40:10;;;;;;;31.73;13.95;;;;;;;-2.85;91.28;99827.30;1715277;82;21006;-68
2020/12/23 03:42:37;;;;;;;40.40;16.20;;;;;;;-2.83;91.28;99825.73;1703874;83;21216;-69
2020/12/23 03:45:05;;;;;;;31.97;13.32;;;;;;;-2.83;91.32;99821.70;1703777;84;21984;-69
2020/12/23 03:47:32;;;;;;;35.05;14.95;;;;;;;-2.82;91.36;99828.20;1703954;83;21152;-68
2020/12/23 03:50:00;;;;;;;31.75;13.30;;;;;;;-2.82;91.28;99817.45;1703878;83;20998;-68
2020/12/23 03:52:28;;;;;;;35.78;16.97;;;;;;;-2.81;91.25;99823.13;1703971;84;21080;-68
2020/12/23 03:54:56;;;;;;;33.80;14.83;;;;;;;-2.80;91.31;99825.30;1704006;84;21494;-68
2020/12/23 03:57:23;;;;;;;36.03;16.17;;;;;;;-2.78;91.38;99825.89;1703979;84;20966;-68
2020/12/23 03:59:51;;;;;;;40.08;16.60;;;;;;;-2.76;91.36;99818.44;1703938;84;21030;-68
2020/12/23 04:02:18;;;;;;;39.23;16.00;;;;;;;-2.76;91.32;99818.44;1703998;83;21100;-68
2020/12/23 04:04:46;;;;;;;40.92;16.42;;;;;;;-2.75;91.43;99813.36;1689785;84;20926;-69
2020/12/23 04:07:14;;;;;;;38.45;16.48;;;;;;;-2.75;91.46;99796.71;1704114;84;22295;-68
2020/12/23 04:09:42;;;;;;;37.23;16.12;;;;;;;-2.75;91.42;99803.44;1703979;83;21013;-68
2020/12/23 04:12:10;;;;;;;35.95;14.55;;;;;;;-2.75;91.53;99807.47;1703937;84;21172;-68
2020/12/23 04:14:39;;;;;;;40.05;16.07;;;;;;;-2.73;91.58;99801.86;1704062;84;20943;-68
2020/12/23 04:17:06;;;;;;;37.80;15.43;;;;;;;-2.71;91.69;99804.63;1704004;84;20935;-69
2020/12/23 04:19:34;;;;;;;41.92;16.77;;;;;;;-2.72;91.60;99793.58;1704003;84;23526;-68
2020/12/23 04:22:02;;;;;;;45.17;16.95;;;;;;;-2.72;91.64;99793.58;1704026;84;21612;-69
2020/12/23 04:24:30;;;;;;;43.13;17.87;;;;;;;-2.71;91.73;99801.94;1703859;84;21034;-70
2020/12/23 04:26:58;;;;;;;48.28;19.23;;;;;;;-2.71;91.75;99793.88;1665306;85;21279;-70
2020/12/23 04:29:26;;;;;;;36.93;15.63;;;;;;;-2.69;91.83;99796.34;1673183;85;21505;-68
2020/12/23 04:31:54;;;;;;;43.05;16.73;;;;;;;-2.68;91.83;99789.92;1727431;83;21377;-69
2020/12/23 04:34:22;;;;;;;38.65;14.33;;;;;;;-2.67;91.88;99783.50;1724187;82;21534;-69
2020/12/23 04:36:50;;;;;;;45.35;18.45;;;;;;;-2.67;91.87;99784.33;1713077;82;21177;-68
2020/12/23 04:39:17;;;;;;;42.30;17.30;;;;;;;-2.66;91.92;99795.37;1699382;82;21503;-68
2020/12/23 04:41:45;;;;;;;46.90;20.02;;;;;;;-2.66;91.99;99806.12;1706815;84;21048;-68
2020/12/23 04:44:13;;;;;;;45.10;17.90;;;;;;;-2.66;91.95;99794.03;1706771;84;21252;-69
2020/12/23 04:46:41;;;;;;;47.50;18.65;;;;;;;-2.67;91.96;99778.95;1682047;84;21563;-68
2020/12/23 04:49:10;;;;;;;44.15;18.87;;;;;;;-2.64;92.12;99788.95;1682593;84;20937;-68
2020/12/23 04:51:39;;;;;;;47.05;19.82;;;;;;;-2.62;92.10;99781.49;1706767;84;20953;-69
2020/12/23 04:54:08;;;;;;;51.15;19.85;;;;;;;-2.63;92.05;99790.08;1706809;84;21795;-69
2020/12/23 04:56:36;;;;;;;49.70;19.42;;;;;;;-2.62;92.04;99789.03;1706752;84;22182;-68
2020/12/23 04:59:04;;;;;;;47.17;18.02;;;;;;;-2.61;91.96;99785.83;1706721;84;21567;-68
2020/12/23 05:01:32;;;;;;;47.85;19.00;;;;;;;-2.61;92.05;99785.30;1706821;84;21009;-68
2020/12/23 05:03:59;;;;;;;49.53;19.40;;;;;;;-2.59;91.99;99782.39;1706802;84;21197;-68
2020/12/23 05:06:27;;;;;;;42.38;17.42;;;;;;;-2.59;91.96;99782.39;1706827;84;20929;-69
2020/12/23 05:08:55;;;;;;;43.13;17.75;;;;;;;-2.59;91.94;99786.42;1706779;84;21231;-69
2020/12/23 05:11:23;;;;;;;43.23;17.40;;;;;;;-2.59;91.96;99781.05;1706674;84;21028;-68
2020/12/23 05:13:50;;;;;;;44.90;18.42;;;;;;;-2.57;92.00;99778.95;1706722;84;21017;-69
2020/12/23 05:16:23;;;;;;;42.38;18.05;;;;;;;-2.58;91.97;99783.51;1682599;84;20917;-69
2020/12/23 05:18:55;;;;;;;46.63;16.87;;;;;;;-2.58;92.06;99778.66;1716272;82;21128;-69
2020/12/23 05:21:24;;;;;;;48.95;18.45;;;;;;;-2.58;92.08;99770.06;1714891;82;22033;-68
2020/12/23 05:23:53;;;;;;;50.45;17.67;;;;;;;-2.59;92.10;99764.39;1706683;84;21165;-69
2020/12/23 05:26:22;;;;;;;45.70;17.95;;;;;;;-2.58;92.16;99771.41;1706720;84;21170;-69
2020/12/23 05:28:50;;;;;;;44.70;18.05;;;;;;;-2.56;92.28;99763.13;1706709;84;21158;-69
2020/12/23 05:31:20;;;;;;;51.55;19.02;;;;;;;-2.57;92.44;99764.17;1706680;84;21131;-71
2020/12/23 05:33:49;;;;;;;51.37;18.60;;;;;;;-2.58;92.57;99766.03;1706742;84;21431;-69
2020/12/23 05:36:18;;;;;;;48.85;20.40;;;;;;;-2.58;92.84;99770.06;1703451;84;20949;-69
2020/12/23 05:38:47;;;;;;;53.42;19.73;;;;;;;-2.58;93.08;99767.91;1706808;84;20901;-69
2020/12/23 05:41:15;;;;;;;49.98;19.62;;;;;;;-2.59;93.27;99767.61;1706674;82;21487;-68
2020/12/23 05:43:43;;;;;;;67.40;22.62;;;;;;;-2.61;93.50;99758.95;1706740;84;21115;-68
2020/12/23 05:46:12;;;;;;;52.43;19.70;;;;;;;-2.61;93.63;99764.32;1706821;84;22052;-69
2020/12/23 05:48:41;;;;;;;56.55;20.70;;;;;;;-2.62;93.77;99758.64;1706652;84;21201;-69
2020/12/23 05:51:10;;;;;;;60.65;21.97;;;;;;;-2.61;93.92;99757.60;1706789;84;21484;-69
2020/12/23 05:53:39;;;;;;;65.20;22.77;;;;;;;-2.62;94.09;99757.30;1706684;84;20988;-68
2020/12/23 05:56:08;;;;;;;64.20;21.70;;;;;;;-2.61;94.32;99752.22;1706759;84;21072;-67
2020/12/23 05:58:38;;;;;;;69.15;22.25;;;;;;;-2.62;94.46;99756.78;1706667;84;22117;-68
2020/12/23 06:01:09;;;;;;;65.52;21.87;;;;;;;-2.62;94.61;99747.38;1706654;84;20954;-68
2020/12/23 06:03:55;;;;;;;53.70;21.50;;;;;;;-2.62;94.70;99741.17;1707061;84;21092;-68
2020/12/23 06:06:27;;;;;;;51.10;19.92;;;;;;;-2.62;94.87;99753.27;1682605;84;21607;-68
2020/12/23 06:08:58;;;;;;;48.50;19.35;;;;;;;-2.63;94.96;99737.67;1707012;84;21080;-68
2020/12/23 06:11:44;;;;;;;46.45;18.95;;;;;;;-2.64;95.16;99741.41;1706775;84;21563;-68
2020/12/23 06:14:28;;;;;;;52.55;20.75;;;;;;;-2.64;95.20;99735.20;1706641;84;21020;-68
2020/12/23 06:17:05;;;;;;;50.98;19.57;;;;;;;-2.64;95.32;99725.80;1725900;82;21508;-68
2020/12/23 06:22:17;;;;;;;63.52;22.50;;;;;;;-2.58;95.55;99722.20;1910172;74;22369;-66
2020/12/23 06:24:45;;;;;;;57.25;21.05;;;;;;;-2.62;95.56;99725.88;1847304;77;20928;-69
2020/12/23 06:27:13;;;;;;;48.95;18.70;;;;;;;-2.61;95.66;99719.97;1849957;77;23586;-67
2020/12/23 06:29:45;;;;;;;52.20;20.68;;;;;;;-2.60;95.56;99720.27;1849872;77;20976;-71
2020/12/23 06:32:22;;;;;;;50.48;20.12;;;;;;;-2.59;95.71;99721.91;1846106;76;20991;-67
2020/12/23 06:35:01;;;;;;;49.75;20.55;;;;;;;-2.59;95.59;99721.91;1801919;79;21003;-70
2020/12/23 06:37:32;;;;;;;53.78;20.12;;;;;;;-2.57;95.58;99742.14;1816757;79;21021;-67
2020/12/23 06:40:08;;;;;;;56.48;21.12;;;;;;;-2.56;95.50;99732.22;1815486;79;21151;-68
2020/12/23 06:42:36;;;;;;;49.25;20.45;;;;;;;-2.55;95.50;99748.12;1816723;79;21614;-71
2020/12/23 06:45:07;;;;;;;55.12;20.25;;;;;;;-2.53;95.49;99753.27;1816606;79;20910;-79
2020/12/23 06:47:36;;;;;;;56.25;18.77;;;;;;;-2.53;95.45;99734.45;1816817;79;20918;-78
2020/12/23 06:50:08;;;;;;;55.50;20.23;;;;;;;-2.51;95.53;99737.73;1816638;78;20904;-77
2020/12/23 06:52:39;;;;;;;61.40;22.80;;;;;;;-2.52;95.61;99729.38;1816262;79;21183;-76
2020/12/23 06:55:09;;;;;;;53.92;20.27;;;;;;;-2.52;95.67;99737.44;1816615;79;20934;-82
2020/12/23 06:57:44;;;;;;;53.83;21.68;;;;;;;-2.51;95.81;99736.39;1816633;78;21053;-77
2020/12/23 07:00:24;;;;;;;59.95;22.10;;;;;;;-2.50;95.85;99742.06;1816564;78;21013;-83
2020/12/23 07:03:00;;;;;;;60.58;22.67;;;;;;;-2.49;95.87;99744.53;1815869;77;21005;-85
2020/12/23 07:05:35;;;;;;;67.90;25.65;;;;;;;-2.47;95.84;99737.58;1816453;79;21211;-82
2020/12/23 07:08:12;;;;;;;60.50;22.00;;;;;;;-2.45;95.86;99747.06;1813604;79;21528;-78
2020/12/23 07:10:46;;;;;;;59.08;24.10;;;;;;;-2.44;95.87;99747.36;1816535;79;20927;-78
2020/12/23 07:13:21;;;;;;;56.80;21.97;;;;;;;-2.42;95.74;99750.64;1816526;79;20930;-91
2020/12/23 07:15:54;;;;;;;53.38;19.50;;;;;;;-2.41;95.64;99754.16;1816580;79;21131;-73
2020/12/23 07:18:29;;;;;;;62.93;27.73;;;;;;;-2.41;95.58;99750.13;1816629;79;21189;-73
2020/12/23 07:21:04;;;;;;;59.80;24.70;;;;;;;-2.39;95.59;99744.81;1816458;78;20919;-72
2020/12/23 07:23:34;;;;;;;65.40;26.62;;;;;;;-2.37;95.65;99743.24;1817150;79;20978;-75
2020/12/23 07:26:06;;;;;;;54.83;24.27;;;;;;;-2.35;95.55;99727.18;1817005;79;20926;-77
2020/12/23 07:28:42;;;;;;;54.15;22.98;;;;;;;-2.32;95.56;99729.94;1817223;79;20859;-69
2020/12/23 07:31:10;;;;;;;58.65;22.67;;;;;;;-2.30;95.44;99733.19;1817119;79;21359;-69
2020/12/23 07:33:39;;;;;;;65.00;24.98;;;;;;;-2.28;95.27;99719.52;1816496;79;21029;-70
2020/12/23 07:36:08;;;;;;;66.82;21.35;;;;;;;-2.26;95.34;99720.11;1816490;79;20930;-71
2020/12/23 07:38:38;;;;;;;63.55;24.12;;;;;;;-2.23;95.41;99712.94;1816439;79;21060;-70
2020/12/23 07:41:06;;;;;;;63.42;25.43;;;;;;;-2.20;95.48;99707.09;1816489;79;20930;-70
2020/12/23 07:43:34;;;;;;;67.78;23.55;;;;;;;-2.18;95.50;99700.97;1816479;79;21357;-81
2020/12/23 07:46:01;;;;;;;65.65;22.42;;;;;;;-2.16;95.51;99689.45;1816503;79;21548;-78
2020/12/23 07:48:29;;;;;;;51.92;19.65;;;;;;;-2.14;95.47;99702.97;1816628;79;21001;-79
2020/12/23 07:50:58;;;;;;;51.35;22.58;;;;;;;-2.13;95.38;99698.41;1816463;79;21597;-79
2020/12/23 07:53:28;;;;;;;56.50;22.48;;;;;;;-2.13;95.32;99691.16;1816639;79;20974;-84
2020/12/23 07:56:01;;;;;;;53.20;20.80;;;;;;;-2.13;95.37;99687.65;1791853;79;21187;-70
2020/12/23 07:58:30;;;;;;;57.93;22.73;;;;;;;-2.14;95.41;99680.63;1816510;79;21021;-75
2020/12/23 08:00:57;;;;;;;57.58;22.15;;;;;;;-2.14;95.51;99680.11;1816517;79;20903;-69
2020/12/23 08:03:32;;;;;;;54.75;21.55;;;;;;;-2.12;95.55;99683.91;1816500;79;21452;-72
2020/12/23 08:06:08;;;;;;;52.15;21.65;;;;;;;-2.12;95.52;99683.39;1816671;79;21572;-75
2020/12/23 08:08:36;;;;;;;53.13;22.07;;;;;;;-2.11;95.49;99687.72;1816738;79;21275;-76
2020/12/23 08:11:14;;;;;;;59.75;21.42;;;;;;;-2.10;95.54;99685.33;1816566;79;20941;-79
2020/12/23 08:13:42;;;;;;;61.10;24.37;;;;;;;-2.10;95.63;99675.91;1816657;79;21104;-86
2020/12/23 08:16:15;;;;;;;68.30;26.70;;;;;;;-2.09;95.65;99669.48;1816447;79;20997;-83
2020/12/23 08:18:44;;;;;;;54.93;21.07;;;;;;;-2.06;95.66;99682.99;1816637;79;20985;-77
2020/12/23 08:21:16;;;;;;;63.90;24.45;;;;;;;-2.07;95.52;99682.17;1816541;78;21172;-86
2020/12/23 08:23:46;;;;;;;60.85;25.68;;;;;;;-2.05;95.54;99672.00;1816912;78;20938;-76
2020/12/23 08:26:14;;;;;;;51.25;21.65;;;;;;;-2.00;95.72;99683.42;1816506;79;21441;-83
2020/12/23 08:28:43;;;;;;;61.83;23.75;;;;;;;-2.00;95.76;99668.09;1816395;79;21136;-82
2020/12/23 08:31:27;;;;;;;54.45;22.42;;;;;;;-1.99;95.92;99664.88;1816459;79;20994;-73
2020/12/23 08:34:00;;;;;;;57.45;22.70;;;;;;;-2.00;96.16;99672.66;1816437;79;21414;-72
2020/12/23 08:36:31;;;;;;;66.15;26.62;;;;;;;-2.02;96.41;99656.75;1816514;79;21564;-74
2020/12/23 08:38:58;;;;;;;55.43;22.15;;;;;;;-2.00;96.53;99650.61;1816156;79;21207;-73
2020/12/23 08:41:26;;;;;;;53.68;23.27;;;;;;;-1.98;96.72;99643.66;1818721;77;20985;-73
2020/12/23 08:43:54;;;;;;;49.35;20.68;;;;;;;-1.97;96.71;99641.78;1823753;78;21448;-81
2020/12/23 08:46:26;;;;;;;54.75;23.75;;;;;;;-1.97;96.85;99639.09;1823739;78;21110;-77
2020/12/23 08:48:54;;;;;;;67.05;23.90;;;;;;;-1.96;96.91;99640.73;1823691;78;21484;-74
2020/12/23 08:51:25;;;;;;;55.28;22.40;;;;;;;-1.96;97.04;99638.86;1823719;78;21088;-78
2020/12/23 08:53:53;;;;;;;58.10;24.23;;;;;;;-1.93;97.13;99637.05;1823710;78;20941;-78
2020/12/23 08:56:28;;;;;;;55.73;25.05;;;;;;;-1.92;97.09;99633.31;1823696;78;20934;-77
2020/12/23 08:59:04;;;;;;;55.92;24.27;;;;;;;-1.90;97.16;99617.75;1823923;78;21370;-79
2020/12/23 09:01:33;;;;;;;64.30;26.93;;;;;;;-1.88;97.18;99629.11;1823632;78;20965;-78
2020/12/23 09:04:09;;;;;;;59.08;25.37;;;;;;;-1.87;97.12;99622.67;1823649;78;21520;-82
2020/12/23 09:06:44;;;;;;;61.45;26.93;;;;;;;-1.86;97.23;99623.49;1823694;78;20918;-84
2020/12/23 09:09:23;;;;;;;62.43;28.62;;;;;;;-1.82;97.34;99632.73;1823476;78;20977;-75
2020/12/23 09:11:54;;;;;;;58.35;26.57;;;;;;;-1.82;97.44;99627.36;1823695;78;21420;-75
2020/12/23 09:14:34;;;;;;;63.00;24.95;;;;;;;-1.79;97.46;99625.02;1823512;77;21299;-75
2020/12/23 09:17:09;;;;;;;52.93;22.15;;;;;;;-1.78;97.55;99617.23;1823676;77;20962;-81
2020/12/23 09:20:01;;;;;;;57.78;25.48;;;;;;;-1.75;97.66;99610.56;1823669;78;20902;-75
2020/12/23 09:22:37;;;;;;;53.07;23.30;;;;;;;-1.72;97.68;99600.65;1833550;78;21320;-81
2020/12/23 09:25:20;;;;;;;52.58;23.70;;;;;;;-1.69;97.70;99613.64;1756304;81;22279;-85
2020/12/23 09:27:55;;;;;;;53.48;23.85;;;;;;;-1.71;97.62;99603.11;1787513;80;20947;-77
2020/12/23 09:30:51;;;;;;;51.88;22.40;;;;;;;-1.71;97.73;99599.59;1756289;81;20990;-78
2020/12/23 09:33:22;;;;;;;45.20;18.87;;;;;;;-1.69;97.78;99589.42;1787511;79;21585;-77
2020/12/23 09:35:52;;;;;;;49.98;19.67;;;;;;;-1.71;97.63;99586.95;1741466;81;20987;-79
2020/12/23 09:38:27;;;;;;;54.15;23.73;;;;;;;-1.73;97.58;99583.68;1787280;80;21429;-73
2020/12/23 09:40:56;;;;;;;55.48;25.00;;;;;;;-1.74;97.75;99587.45;1756129;81;20942;-76
2020/12/23 09:43:28;;;;;;;48.78;22.52;;;;;;;-1.75;97.81;99582.31;1787329;80;21589;-72
2020/12/23 09:45:57;;;;;;;;;;;;;;;-1.75;97.89;99579.09;1759080;81;20931;-72
2020/12/23 09:48:26;;;;;;;48.68;22.07;;;;;;;-1.74;98.03;99575.34;1756837;81;20112;-72
2020/12/23 09:50:54;;;;;;;73.45;31.93;;;;;;;-1.73;98.20;99572.91;1787717;80;21433;-74
2020/12/23 09:53:22;;;;;;;57.23;26.05;;;;;;;-1.71;98.24;99573.50;1756167;81;20994;-74
2020/12/23 09:55:51;;;;;;;98.05;38.38;;;;;;;-1.71;98.32;99577.54;1787224;80;20990;-74
2020/12/23 09:58:20;;;;;;;90.47;40.35;;;;;;;-1.68;98.25;99570.87;1761492;80;21445;-71
2020/12/23 10:00:48;;;;;;;117.17;46.13;;;;;;;-1.69;98.26;99571.39;1756156;81;21047;-75
2020/12/23 10:03:16;;;;;;;95.90;42.23;;;;;;;-1.67;98.37;99567.13;1756230;81;21382;-75
2020/12/23 10:05:43;;;;;;;100.42;44.85;;;;;;;-1.62;98.45;99571.27;1756103;81;20914;-74
2020/12/23 10:08:11;;;;;;;86.37;41.25;;;;;;;-1.60;98.46;99571.86;1777648;80;21592;-74
2020/12/23 10:10:39;;;;;;;56.63;26.10;;;;;;;-1.56;98.44;99568.16;1777589;80;21402;-74
2020/12/23 10:13:07;;;;;;;53.38;24.57;;;;;;;-1.57;98.33;99567.88;1777689;80;20918;-74
2020/12/23 10:15:35;;;;;;;51.00;23.10;;;;;;;-1.57;98.32;99560.62;1777751;80;22085;-74
2020/12/23 10:18:02;;;;;;;53.23;22.60;;;;;;;-1.55;98.43;99563.89;1777605;80;20950;-74
2020/12/23 10:20:29;;;;;;;49.60;22.90;;;;;;;-1.52;98.52;99558.03;1777661;80;21061;-74
2020/12/23 10:22:57;;;;;;;46.35;20.92;;;;;;;-1.49;98.51;99556.22;1777505;80;21449;-73
2020/12/23 10:25:24;;;;;;;48.80;21.82;;;;;;;-1.48;98.32;99551.65;1777735;80;21128;-73
2020/12/23 10:27:52;;;;;;;45.92;21.48;;;;;;;-1.49;98.16;99546.80;1777801;80;22672;-73
2020/12/23 10:30:19;;;;;;;50.20;23.15;;;;;;;-1.47;98.18;99547.38;1777661;80;21030;-73
2020/12/23 10:32:46;;;;;;;46.28;23.90;;;;;;;-1.46;98.13;99542.28;1784187;79;20935;-73
2020/12/23 10:35:14;;;;;;;50.33;25.00;;;;;;;-1.45;98.01;99535.02;1789247;79;21069;-74
2020/12/23 10:37:43;;;;;;;42.53;20.90;;;;;;;-1.42;98.00;99533.20;1777596;80;21096;-72
2020/12/23 10:40:10;;;;;;;42.88;20.90;;;;;;;-1.39;98.10;99537.58;1777740;80;21485;-72
2020/12/23 10:42:38;;;;;;;42.25;20.72;;;;;;;-1.36;98.01;99537.63;1777663;80;21493;-72
2020/12/23 10:45:06;;;;;;;52.13;22.22;;;;;;;-1.35;97.95;99531.19;1777648;80;20919;-75
2020/12/23 10:47:35;;;;;;;60.67;26.35;;;;;;;-1.32;97.93;99528.55;1777648;80;20926;-77
2020/12/23 10:50:03;;;;;;;55.43;23.60;;;;;;;-1.31;97.95;99524.27;1777634;80;21117;-77
2020/12/23 10:52:30;;;;;;;44.48;21.35;;;;;;;-1.29;97.94;99522.16;1777762;80;22277;-77
2020/12/23 10:54:59;;;;;;;43.10;19.73;;;;;;;-1.27;97.94;99527.31;1777676;80;21022;-76
2020/12/23 10:57:26;;;;;;;44.45;22.52;;;;;;;-1.26;97.84;99522.21;1777661;80;20939;-77
2020/12/23 10:59:54;;;;;;;52.10;26.80;;;;;;;-1.27;97.75;99524.09;1777741;80;20918;-77
2020/12/23 11:02:21;;;;;;;51.63;27.62;;;;;;;-1.26;97.71;99520.34;1777728;80;20974;-75
2020/12/23 11:04:49;;;;;;;46.08;23.80;;;;;;;-1.25;97.73;99520.63;1777752;80;21323;-77
2020/12/23 11:07:17;;;;;;;49.38;23.92;;;;;;;-1.24;97.65;99514.70;1777770;80;20946;-76
2020/12/23 11:09:44;;;;;;;55.00;25.85;;;;;;;-1.25;97.70;99511.73;1778551;80;20931;-77
2020/12/23 11:12:13;;;;;;;49.35;23.90;;;;;;;-1.26;97.81;99515.48;1780757;79;20974;-77
2020/12/23 11:14:42;;;;;;;38.90;19.92;;;;;;;-1.26;97.99;99514.95;1780825;79;21021;-76
2020/12/23 11:17:10;;;;;;;39.98;18.85;;;;;;;-1.27;98.24;99511.15;1781111;79;21192;-77
2020/12/23 11:19:37;;;;;;;48.17;19.32;;;;;;;-1.31;98.46;99512.16;1781772;79;21211;-77
2020/12/23 11:22:05;;;;;;;60.12;19.48;;;;;;;-1.32;98.61;99503.78;1781633;80;20919;-76
2020/12/23 11:24:33;;;;;;;89.03;20.97;;;;;;;-1.31;98.79;99509.45;1781833;79;20974;-77
2020/12/23 11:27:00;;;;;;;66.90;20.88;;;;;;;-1.29;98.87;99506.53;1779822;80;20942;-76
2020/12/23 11:29:28;;;;;;;68.50;20.45;;;;;;;-1.28;98.84;99496.05;1777855;80;21351;-78